Weather History for KDYT - September, 2013

Change the Weather History Date:

Tuesday, September 17, 2013

  Actual Average Record
Temperature  
Mean Temperature 58 °F -  
Max Temperature 71 °F 65 °F 90 °F (1948)
Min Temperature 46 °F 47 °F 25 °F (1959)
Degree Days  
Heating Degree Days 6    
Growing Degree Days 8 (Base 50)    
Moisture  
Dew Point 48 °F    
Average Humidity 72    
Maximum Humidity 87    
Minimum Humidity 46    
Precipitation  
Precipitation 0.00 in - - ()
Sea Level Pressure  
Sea Level Pressure 30.14 in    
Wind  
Wind Speed 5 mph (SSW)    
Max Wind Speed 17 mph    
Max Gust Speed 22 mph    
Visibility 10 miles    
Events      
Averages and records for this station are not official NWS values.
T = Trace of Precipitation, MM = Missing Value Source: NWS Daily Summary

Daily Weather History Graph

Daily Weather History Graph

Search for Another Location

Airport or City:

Trip Planner

Search our weather history database for the weather conditions in past years. The results will help you decide how hot, cold, wet, or windy it might be!

Date:

Astronomy

Sep. 17, 2013 Rise Set
Actual Time 6:48 AM CDT 7:15 PM CDT
Civil Twilight 6:18 AM CDT 7:45 PM CDT
Nautical Twilight 5:42 AM CDT 8:21 PM CDT
Astronomical Twilight 5:05 AM CDT 8:58 PM CDT
Moon 6:05 PM CDT (9/17) 4:38 AM CDT (9/17)
Length of Visible Light 13h 27m
Length of Day
12h 26m
Waxing Gibbous, 96% of the Moon is Illuminated
Sep 17
Waxing Gibbous
Sep 19
Full
Sep 26
Last Quarter
Oct 4
New
Oct 11
First Quarter

Hourly Weather History & Observations

Time (CDT) Temp. Windchill Dew Point Humidity Pressure Visibility Wind Dir Wind Speed Gust Speed Precip Events Conditions
12:14 AM 50.0 °F - 46.4 °F 87% 30.27 in 10.0 mi Calm Calm - N/A   Clear
12:33 AM 50.0 °F - 46.4 °F 87% 30.28 in 10.0 mi SW 3.5 mph - N/A   Clear
12:53 AM 50.0 °F - 44.6 °F 82% 30.28 in 10.0 mi SW 3.5 mph - N/A   Clear
1:13 AM 50.0 °F - 44.6 °F 82% 30.28 in 10.0 mi SW 3.5 mph - N/A   Clear
1:34 AM 48.2 °F - 44.6 °F 87% 30.27 in 10.0 mi Calm Calm - N/A   Clear
1:53 AM 48.2 °F - 42.8 °F 82% 30.27 in 10.0 mi South 3.5 mph - N/A   Clear
2:14 AM 48.2 °F - 42.8 °F 82% 30.27 in 10.0 mi SSW 3.5 mph - N/A   Clear
2:33 AM 48.2 °F - 42.8 °F 82% 30.27 in 10.0 mi Calm Calm - N/A   Clear
2:53 AM 48.2 °F - 42.8 °F 82% 30.27 in 10.0 mi South 4.6 mph - N/A   Clear
3:13 AM 48.2 °F - 42.8 °F 82% 30.26 in 10.0 mi SSW 4.6 mph - N/A   Clear
3:33 AM 48.2 °F - 42.8 °F 82% 30.26 in 10.0 mi SW 4.6 mph - N/A   Clear
3:54 AM 48.2 °F - 42.8 °F 82% 30.26 in 10.0 mi SW 4.6 mph - N/A   Clear
4:13 AM 48.2 °F - 42.8 °F 82% 30.26 in 10.0 mi SSW 4.6 mph - N/A   Clear
4:34 AM 48.2 °F - 42.8 °F 82% 30.25 in 10.0 mi SSW 5.8 mph - N/A   Clear
4:53 AM 48.2 °F - 42.8 °F 82% 30.25 in 10.0 mi WSW 4.6 mph - N/A   Clear
5:13 AM 48.2 °F - 42.8 °F 82% 30.25 in 10.0 mi WSW 4.6 mph - N/A   Clear
5:34 AM 48.2 °F - 42.8 °F 82% 30.25 in 10.0 mi WSW 4.6 mph - N/A   Clear
5:53 AM 48.2 °F - 42.8 °F 82% 30.24 in 10.0 mi West 4.6 mph - N/A   Clear
6:13 AM 48.2 °F - 41.0 °F 76% 30.24 in 10.0 mi West 4.6 mph - N/A   Clear
6:34 AM 46.4 °F 45.2 °F 42.8 °F 87% 30.25 in 10.0 mi West 3.5 mph - N/A   Clear
6:53 AM 48.2 °F - 42.8 °F 82% 30.25 in 10.0 mi Calm Calm - N/A   Clear
7:14 AM 48.2 °F - 42.8 °F 82% 30.25 in 10.0 mi Calm Calm - N/A   Clear
7:33 AM 48.2 °F - 42.8 °F 82% 30.25 in 10.0 mi Calm Calm - N/A   Clear
7:53 AM 48.2 °F - 42.8 °F 82% 30.24 in 10.0 mi Calm Calm - N/A   Clear
8:14 AM 48.2 °F - 42.8 °F 82% 30.24 in 10.0 mi Calm Calm - N/A   Clear
8:33 AM 50.0 °F - 42.8 °F 76% 30.23 in 10.0 mi WSW 3.5 mph - N/A   Clear
8:54 AM 50.0 °F - 44.6 °F 82% 30.22 in 10.0 mi Calm Calm - N/A   Clear
9:13 AM 51.8 °F - 44.6 °F 76% 30.22 in 10.0 mi Calm Calm - N/A   Clear
9:34 AM 53.6 °F - 44.6 °F 72% 30.22 in 10.0 mi Calm Calm - N/A   Clear
9:54 AM 53.6 °F - 46.4 °F 77% 30.21 in 10.0 mi Calm Calm - N/A   Clear
10:13 AM 55.4 °F - 46.4 °F 72% 30.21 in 10.0 mi NNE 3.5 mph - N/A   Clear
10:33 AM 55.4 °F - 46.4 °F 72% 30.20 in 10.0 mi NNE 5.8 mph - N/A   Clear
10:54 AM 55.4 °F - 48.2 °F 77% 30.19 in 10.0 mi NNE 5.8 mph - N/A   Clear
11:13 AM 55.4 °F - 48.2 °F 77% 30.18 in 10.0 mi NNE 5.8 mph - N/A   Clear
11:34 AM 55.4 °F - 48.2 °F 77% 30.17 in 10.0 mi North 6.9 mph - N/A   Clear
11:53 AM 57.2 °F - 50.0 °F 77% 30.16 in 10.0 mi NNE 8.1 mph - N/A   Clear
12:13 PM 57.2 °F - 50.0 °F 77% 30.15 in 10.0 mi NNE 10.4 mph - N/A   Scattered Clouds
12:33 PM 59.0 °F - 51.8 °F 77% 30.14 in 10.0 mi NNE 10.4 mph - N/A   Scattered Clouds
12:53 PM 60.8 °F - 53.6 °F 77% 30.13 in 10.0 mi NE 8.1 mph - N/A   Clear
1:14 PM 60.8 °F - 53.6 °F 77% 30.11 in 10.0 mi NE 8.1 mph - N/A   Clear
1:33 PM 62.6 °F - 53.6 °F 72% 30.11 in 10.0 mi East 3.5 mph - N/A   Clear
1:53 PM 64.4 °F - 51.8 °F 64% 30.09 in 10.0 mi South 12.7 mph - N/A   Clear
2:14 PM 69.8 °F - 50.0 °F 49% 30.08 in 10.0 mi SSW 13.8 mph - N/A   Clear
2:33 PM 69.8 °F - 51.8 °F 53% 30.07 in 10.0 mi South 15.0 mph 19.6 mph N/A   Clear
2:53 PM 69.8 °F - 50.0 °F 49% 30.06 in 10.0 mi South 13.8 mph 17.3 mph N/A   Clear
3:14 PM 71.6 °F - 50.0 °F 46% 30.05 in 10.0 mi SSW 16.1 mph - N/A   Clear
3:33 PM 71.6 °F - 50.0 °F 46% 30.04 in 10.0 mi SSW 17.3 mph - N/A   Clear
3:54 PM 71.6 °F - 50.0 °F 46% 30.04 in 10.0 mi South 16.1 mph 20.7 mph N/A   Clear
4:13 PM 71.6 °F - 50.0 °F 46% 30.03 in 10.0 mi South 10.4 mph - N/A   Clear
4:34 PM 71.6 °F - 50.0 °F 46% 30.02 in 10.0 mi South 13.8 mph - N/A   Clear
4:53 PM 71.6 °F - 50.0 °F 46% 30.02 in 10.0 mi South 15.0 mph - N/A   Clear
5:13 PM 69.8 °F - 48.2 °F 46% 30.01 in 10.0 mi South 13.8 mph 21.9 mph N/A   Clear
5:33 PM 69.8 °F - 48.2 °F 46% 30.01 in 10.0 mi SSW 12.7 mph - N/A   Clear
5:53 PM 69.8 °F - 48.2 °F 46% 30.01 in 10.0 mi South 9.2 mph - N/A   Clear
6:14 PM 69.8 °F - 51.8 °F 53% 30.01 in 10.0 mi South 9.2 mph - N/A   Clear
6:33 PM 66.2 °F - 55.4 °F 68% 30.01 in 10.0 mi NNE 5.8 mph - N/A   Clear
6:54 PM 60.8 °F - 55.4 °F 82% 30.00 in 10.0 mi NE 9.2 mph - N/A   Clear
7:13 PM 60.8 °F - 55.4 °F 82% 30.00 in 10.0 mi Calm Calm - N/A   Clear
7:34 PM 62.6 °F - 53.6 °F 72% 30.00 in 10.0 mi Calm Calm - N/A   Scattered Clouds
7:53 PM 62.6 °F - 53.6 °F 72% 30.00 in 10.0 mi SSW 3.5 mph - N/A   Mostly Cloudy
8:13 PM 62.6 °F - 51.8 °F 68% 30.00 in 10.0 mi SSE 4.6 mph - N/A   Mostly Cloudy
8:34 PM 62.6 °F - 51.8 °F 68% 30.00 in 10.0 mi South 4.6 mph - N/A   Overcast
8:53 PM 62.6 °F - 51.8 °F 68% 30.00 in 10.0 mi South 8.1 mph - N/A   Overcast
9:13 PM 60.8 °F - 51.8 °F 72% 29.99 in 10.0 mi SSE 6.9 mph - N/A   Overcast
9:33 PM 60.8 °F - 51.8 °F 72% 29.99 in 10.0 mi South 4.6 mph - N/A   Overcast
9:53 PM 60.8 °F - 51.8 °F 72% 29.99 in 10.0 mi South 4.6 mph - N/A   Overcast
10:14 PM 60.8 °F - 51.8 °F 72% 29.99 in 10.0 mi South 9.2 mph - N/A   Overcast
10:34 PM 60.8 °F - 53.6 °F 77% 29.99 in 10.0 mi South 11.5 mph - N/A   Overcast
10:53 PM 60.8 °F - 53.6 °F 77% 29.98 in 10.0 mi South 9.2 mph - N/A   Overcast
11:14 PM 60.8 °F - 53.6 °F 77% 29.98 in 10.0 mi South 12.7 mph - N/A   Overcast
11:33 PM 60.8 °F - 53.6 °F 77% 29.98 in 10.0 mi SSW 9.2 mph - N/A   Overcast
11:53 PM 60.8 °F - 53.6 °F 77% 29.97 in 10.0 mi SSW 10.4 mph - N/A   Overcast